AirNav   Air Wisconsin pilot careers
 
 1470 users online  

9VG Campbell Field Airport
Weirwood, Virginia, USA

GOING TO WEIRWOOD?


FAA INFORMATION EFFECTIVE 13 SEPTEMBER 2018

Location

FAA Identifier: 9VG
Lat/Long: 37-27-30.4900N / 075-52-43.7500W
37-27.508167N / 075-52.729167W
37.4584694 / -75.8788194
(estimated)
Elevation: 40 ft. / 12 m (estimated)
Variation: 08W (1970)
From city: 1 mile W of WEIRWOOD, VA
Time zone: UTC -4 (UTC -5 during Standard Time)
Zip code: 23413

Airport Operations

Airport use: Open to the public
Activation date: 11/1937
Control tower: no
ARTCC: WASHINGTON CENTER
FSS: LEESBURG FLIGHT SERVICE STATION
NOTAMs facility: DCA (NOTAM-D service available)
Attendance: MAR-NOV DAYLIGHT HOURS, DEC-FEB IREG
Wind indicator: yes
Segmented circle: no

Airport Communications

CTAF: 122.9
WX AWOS-3 at MFV (13 nm NE): 118.175 (757-787-5660)

Nearby radio navigation aids

VOR radial/distance  VOR name  Freq  Var
CCVr050/8.7CAPE CHARLES VORTAC112.2010W
ORFr031/37.3NORFOLK VORTAC116.9007W
HCMr096/39.7HARCUM VORTAC108.8007W

Airport Services

Parking: tiedowns

Runway Information

Runway 3/21

Dimensions: 3000 x 100 ft. / 914 x 30 m
Surface: turf, in good condition
RUNWAY 3  RUNWAY 21
Traffic pattern: leftleft
Obstructions: 60 ft. pline, marked, 300 ft. from runway, 5:1 slope to clear15 ft. road, 25 ft. from runway, 1:1 slope to clear

Runway 14/32

Dimensions: 1455 x 140 ft. / 443 x 43 m
Surface: turf, in good condition
RUNWAY 14  RUNWAY 32
Traffic pattern: leftleft
Obstructions: 15 ft. road, 20 ft. from runway, 1:1 slope to clear53 ft. trees, 555 ft. from runway, 19 ft. left of centerline, 10:1 slope to clear

Airport Ownership and Management from official FAA records

Ownership: Privately-owned
Owner: CAMPBELL FIELD INC.
PO BOX 64
NASSAWADOX, VA 23413-0084
Phone 914-772-6242
Manager: GORDAN CAMPBELL
PO BOX 64
NASSAWADOX, VA 23413-0084
Phone 914-772-6242
AIRPORT OFFICE CALL 757-442-7519.

Airport Operational Statistics

Aircraft based on the field: 7
Single engine airplanes: 3
Ultralights: 4
    
Aircraft operations: avg 22/week *
87% local general aviation
12% transient general aviation
<1% military
* for 12-month period ending 04 March 1997

Additional Remarks

BE ALERT: 60 FT PLINES LCTD 300 FT SW OFF THE AER 03.
FOR CD CTC ORF APCH AT 757-464-0757.

Instrument Procedures

There are no published instrument procedures at 9VG.

Some nearby airports with instrument procedures:

KMFV - Accomack County Airport (13 nm NE)
KTGI - Tangier Island Airport (23 nm N)
W75 - Hummel Field Airport (28 nm W)
KLFI - Langley Air Force Base (32 nm SW)
W41 - Crisfield-Somerset County Airport (34 nm N)
 
Loc | Ops | Rwys | IFR | FBO | Links
Com | Nav | Svcs | Stats | Notes


 
Area around 9VG (Campbell Field Airport)
 
Road maps at: MapQuest Bing Google
 
Aerial photo
WARNING: Photo may not be current or correct
Aerial photo of 9VG (Campbell Field Airport)
Photo by Gordon Campbell / At Altitude Gallery
Photo taken 09-Jul-2017
looking south.

Do you have a better or more recent aerial photo of Campbell Field Airport that you would like to share? If so, please send us your photo.

 
Sectional chart

 
Airport distance calculator
Flying to Campbell Field Airport? Find the distance to fly.

From to 9VG

Sunrise and sunset
Times for 21-Sep-2018
 Local
(UTC-4)
 Zulu
(UTC)
Morning civil twilight06:2510:25
Sunrise06:5110:51
Sunset19:0223:02
Evening civil twilight19:2823:28

Current date and time
Zulu (UTC)  21-Sep-2018 15:15:15
Local (UTC-4)  21-Sep-2018 11:15:15
 
METAR
KMFV 
12nm NE 
211455Z AUTO 17005KT 10SM BKN025 24/18 A3025 RMK AO2 T02440184
KTGI 
23nm N 
211457Z AUTO 14007KT 10SM SCT050 24/19 A3025 RMK AO1
TAF
KLFI 
33nm SW 
210900Z 2109/2215 13007KT 9999 SCT030 QNH3019INS BECMG 2112/2113 16009KT 9999 SCT030 QNH3004INS WND 18009KT AFT 2121 TX27/2120Z TN17/2110Z
KPHF 
35nm SW 
211120Z 2112/2212 00000KT P6SM SCT050 FM211500 16008KT P6SM SCT050 FM220200 21008KT P6SM SCT250
KORF 
37nm SW 
211120Z 2112/2212 00000KT P6SM SCT250 FM211500 15008KT P6SM SCT050 FM220200 18007KT P6SM SCT250
KNGU 
37nm SW 
2107/2207 VRB05KT 9999 SCT020 SCT280 QNH3016INS TEMPO 2107/2112 VRB02KT 8000 BR BKN020 BECMG 2115/2117 13006KT 9999 SCT020 SCT280 QNH3010INS BECMG 2120/2122 15008KT 9999 FEW300 QNH3007INS BECMG 2203/2205 20008KT 9999 FEW020 FEW280 QNH3006INS T20/2111Z T28/2121Z FN00106
KNTU 
39nm S 
2107/2207 VRB06KT 9999 SCT020 SCT300 QNH3015INS TEMPO 2107/2113 VRB03KT 8000 BR BKN020 BECMG 2115/2117 12010KT 9999 SCT020 SCT280 QNH3012INS BECMG 2120/2122 15010KT 9999 FEW280 QNH3008INS BECMG 2201/2203 20008KT 9999 FEW020 FEW280 QNH3007INS T18/2110Z T28/2119Z FN00106
KFAF 
41nm SW 
211000Z 2110/2216 VRB06KT 9999 SCT030 QNH3002INS TX28/2120Z TN19/2110Z
NOTAMs
Click for the latest NOTAMs
NOTAMs are issued by the DoD/FAA and will open in a separate window not controlled by AirNav.

 

 
 

FBO, Fuel Providers, and Aircraft Ground Support

  
 Business Name 
 
 Contact 
 
 Services / Description 
 
Fuel Prices
 
Comments
  
Eastern Shore Flying Service 757-442-7519
no information available

If you are affiliated with Eastern Shore Flying Service and would like to show here your services, contact info, web link, logo, and more, click here
no fuel
 
   write
Update Fuel Prices
 

Would you like to see your business listed on this page?

 If your business provides an interesting product or service to pilots, flight crews, aircraft, or users of the Campbell Field Airport, you should consider listing it here.  To start the listing process, click on the button below
 
Add a business
 

Other Pages about Campbell Field Airport

www.campbellfieldairport.com
www.flyvirginia.com/...
 
Update a link
 
Copyright © AirNav, LLC. All rights reserved. Privacy Policy  Contact